M I D A S
Marine Information and Data Acquisition System
Tripno 1074 of the Zeeleeuw from 2006-04-21 07:07:59 to 2006-04-21 08:28:20
Back to CruiseResearch ActivitiesStationsMapUnderway DataData graphs

EquipmentUnitsComment
TimeDGPSUTC
LatitudeDGPSDM.mWGS84
LongitudeDGPSDM.mWGS84
HeadingGyrodeg 
SOGDGPSknotsSpeed over ground
COGDGPSdegCourse over ground
DepthEcho soundermeters200 kHz
Missing or incorrect values are displayed as -999
Navigation data collected by the RV Zeeleeuw from 2006-04-21 07:01:57 to 2006-04-21 10:24:19
                                                                                    Next 1000 lines
Time Latitude Longitude Heading SOG COG Depth
2006-04-21 07:02:07 51°13.601 2°56.097 107.5 0.7 273 7.1
2006-04-21 07:02:12 51°13.601 2°56.094 107.1 0.9 281 7.1
2006-04-21 07:02:17 51°13.6 2°56.092 107.1 1 279 7.3
2006-04-21 07:02:21 51°13.601 2°56.09 107.3 1.2 285 7.9
2006-04-21 07:02:27 51°13.602 2°56.087 107.7 1.3 283 8
2006-04-21 07:02:32 51°13.603 2°56.084 108.4 1.4 288 7.4
2006-04-21 07:02:38 51°13.604 2°56.08 109 1.5 285 -999
2006-04-21 07:02:43 51°13.605 2°56.076 110.1 1.7 288 -999
2006-04-21 07:02:48 51°13.606 2°56.072 110.5 2 288 -999
2006-04-21 07:02:53 51°13.607 2°56.068 111.1 2.2 289 -999
2006-04-21 07:02:58 51°13.608 2°56.063 111.5 2.3 291 -999
2006-04-21 07:03:03 51°13.608 2°56.058 111.8 2.3 291 -999
2006-04-21 07:03:08 51°13.608 2°56.053 112.4 2.4 290 -999
2006-04-21 07:03:13 51°13.61 2°56.048 112.5 2.4 291 -999
2006-04-21 07:03:18 51°13.611 2°56.043 112.6 2.4 291 -999
2006-04-21 07:03:23 51°13.612 2°56.038 112.5 2.5 292 -999
2006-04-21 07:03:28 51°13.614 2°56.033 112.4 2.5 291 -999
2006-04-21 07:03:33 51°13.615 2°56.028 112.1 2.5 291 -999
2006-04-21 07:03:38 51°13.617 2°56.022 111.8 2.6 290 -999
2006-04-21 07:03:43 51°13.619 2°56.017 111.6 2.6 291 -999
2006-04-21 07:03:49 51°13.62 2°56.011 111.6 2.6 289 -999
2006-04-21 07:03:53 51°13.622 2°56.007 111.6 2.6 290 -999
2006-04-21 07:03:58 51°13.622 2°56.001 111.7 2.6 290 -999
2006-04-21 07:04:03 51°13.623 2°55.995 111.8 2.6 290 -999
2006-04-21 07:04:08 51°13.624 2°55.989 112 2.7 290 -999
2006-04-21 07:04:13 51°13.625 2°55.984 112.1 2.7 291 -999
2006-04-21 07:04:18 51°13.627 2°55.978 112.4 2.7 290 4.7
2006-04-21 07:04:23 51°13.628 2°55.973 112.6 2.6 291 -999
2006-04-21 07:04:28 51°13.63 2°55.968 113 2.6 290 -999
2006-04-21 07:04:33 51°13.631 2°55.962 113.5 2.6 291 -999
2006-04-21 07:04:38 51°13.633 2°55.957 113.9 2.6 291 -999
2006-04-21 07:04:43 51°13.634 2°55.952 114.5 2.6 292 -999
2006-04-21 07:04:48 51°13.635 2°55.947 115.1 2.5 291 -999
2006-04-21 07:04:53 51°13.637 2°55.941 115.7 2.6 292 -999
2006-04-21 07:04:58 51°13.638 2°55.936 116.3 2.6 292 -999
2006-04-21 07:05:03 51°13.64 2°55.931 117 2.6 293 -999
2006-04-21 07:05:08 51°13.641 2°55.926 117.8 2.6 294 -999
2006-04-21 07:05:13 51°13.643 2°55.921 118.7 2.6 294 -999
2006-04-21 07:05:18 51°13.644 2°55.916 119.5 2.6 295 -999
2006-04-21 07:05:23 51°13.646 2°55.91 120.3 2.6 295 -999
2006-04-21 07:05:28 51°13.648 2°55.905 120.9 2.7 296 -999
2006-04-21 07:05:33 51°13.65 2°55.9 121.4 2.7 296 -999
2006-04-21 07:05:38 51°13.651 2°55.894 122 2.8 298 -999
2006-04-21 07:05:43 51°13.653 2°55.889 122.6 2.8 298 -999
2006-04-21 07:05:48 51°13.655 2°55.883 123.3 2.8 298 4.7
2006-04-21 07:05:53 51°13.657 2°55.878 123.8 2.8 299 -999
2006-04-21 07:05:58 51°13.659 2°55.873 124.1 2.8 299 -999
2006-04-21 07:06:03 51°13.661 2°55.867 124.5 2.8 300 4.7
2006-04-21 07:06:08 51°13.662 2°55.861 124.8 2.9 300 -999
2006-04-21 07:06:13 51°13.664 2°55.855 125.2 3.1 301 -999
2006-04-21 07:06:18 51°13.666 2°55.849 125.3 3.4 301 4.7
2006-04-21 07:06:23 51°13.669 2°55.842 125.4 3.7 301 -999
2006-04-21 07:06:28 51°13.672 2°55.835 125.4 3.8 302 -999
2006-04-21 07:06:33 51°13.675 2°55.828 125.4 3.6 302 -999
2006-04-21 07:06:38 51°13.678 2°55.821 125.4 3.5 303 -999
2006-04-21 07:06:43 51°13.68 2°55.815 125.4 3.4 302 -999
2006-04-21 07:06:48 51°13.682 2°55.809 125.3 3.2 302 -999
2006-04-21 07:06:53 51°13.685 2°55.803 125.1 3.1 303 -999
2006-04-21 07:06:58 51°13.687 2°55.798 125.1 3 303 4.9
2006-04-21 07:07:02 51°13.688 2°55.794 125.1 2.7 302 5.6
2006-04-21 07:07:06 51°13.69 2°55.79 124.9 2.4 303 11.4
2006-04-21 07:07:12 51°13.692 2°55.786 124.3 2.2 303 11.5
2006-04-21 07:07:17 51°13.693 2°55.783 123.8 1.9 305 11.6
2006-04-21 07:07:23 51°13.694 2°55.781 123.4 1 307 -999
2006-04-21 07:07:28 51°13.695 2°55.782 121.2 0.2 30 11.7
2006-04-21 07:07:32 51°13.695 2°55.783 113.9 0.6 88 11.6
2006-04-21 07:07:37 51°13.695 2°55.784 106.5 0.6 72 11.6
2006-04-21 07:07:43 51°13.694 2°55.785 102.3 0.4 81 4.7
2006-04-21 07:07:48 51°13.695 2°55.784 98.7 0.2 353 4.7
2006-04-21 07:07:52 51°13.695 2°55.784 95.4 0.4 294 11.6
2006-04-21 07:07:57 51°13.695 2°55.782 92.3 0.9 275 11.6
2006-04-21 07:08:02 51°13.695 2°55.778 89.6 1.3 273 11.7
2006-04-21 07:08:07 51°13.695 2°55.774 87 1.9 268 11.7
2006-04-21 07:08:12 51°13.695 2°55.77 84.5 1.9 268 11.7
2006-04-21 07:08:17 51°13.695 2°55.766 82.1 1.8 264 -999
2006-04-21 07:08:23 51°13.695 2°55.761 80.5 1.7 267 -999
2006-04-21 07:08:28 51°13.694 2°55.759 78.5 1.3 260 -999
2006-04-21 07:08:33 51°13.694 2°55.757 76.4 1.1 266 -999
2006-04-21 07:08:38 51°13.694 2°55.755 73.8 0.8 262 -999
2006-04-21 07:08:43 51°13.694 2°55.755 70.9 0.5 273 -999
2006-04-21 07:08:48 51°13.694 2°55.754 67.6 0.2 296 -999
2006-04-21 07:08:53 51°13.694 2°55.754 64.2 0.2 15 -999
2006-04-21 07:08:58 51°13.695 2°55.755 60.5 0.5 44 -999
2006-04-21 07:09:03 51°13.696 2°55.756 56.5 0.7 38 -999
2006-04-21 07:09:08 51°13.697 2°55.758 51.9 1 45 -999
2006-04-21 07:09:13 51°13.698 2°55.758 47.1 0.8 26 -999
2006-04-21 07:09:18 51°13.698 2°55.759 43.8 0.1 61 -999
2006-04-21 07:09:23 51°13.698 2°55.758 40.5 0.4 225 -999
2006-04-21 07:09:28 51°13.697 2°55.757 37.5 1 209 -999
2006-04-21 07:09:33 51°13.696 2°55.755 34.9 1.2 217 -999
2006-04-21 07:09:38 51°13.695 2°55.754 33.7 1 206 4.7
2006-04-21 07:09:43 51°13.695 2°55.753 32.8 0.6 219 12
2006-04-21 07:09:48 51°13.695 2°55.753 31.7 -999 61 11.9
2006-04-21 07:09:52 51°13.696 2°55.754 28.7 0.8 10 11.9
2006-04-21 07:09:57 51°13.698 2°55.754 23.3 1.4 12 4.8
2006-04-21 07:10:03 51°13.702 2°55.755 16 2.4 4 4.8
2006-04-21 07:10:08 51°13.707 2°55.754 6.7 3 356 -999
2006-04-21 07:10:13 51°13.711 2°55.752 354.8 3.2 346 4.9
2006-04-21 07:10:17 51°13.714 2°55.75 347.1 3.1 341 4.6
2006-04-21 07:10:21 51°13.717 2°55.749 343 3 338 -999
2006-04-21 07:10:27 51°13.722 2°55.745 338.9 3 334 12.1
2006-04-21 07:10:33 51°13.726 2°55.742 335.8 3 333 -999
2006-04-21 07:10:38 51°13.73 2°55.738 332.9 3.1 330 12
2006-04-21 07:10:43 51°13.734 2°55.734 331.4 3.3 330 12
2006-04-21 07:10:47 51°13.737 2°55.731 330.3 3.5 327 4.9
2006-04-21 07:10:53 51°13.742 2°55.725 330 3.8 328 11.9
2006-04-21 07:10:57 51°13.746 2°55.721 329.9 4.4 327 11.8
2006-04-21 07:11:01 51°13.751 2°55.716 329.9 4.9 327 11.6
2006-04-21 07:11:07 51°13.758 2°55.708 330.2 5.3 327 11.2
2006-04-21 07:11:12 51°13.765 2°55.701 330.4 5.9 328 11.4
2006-04-21 07:11:17 51°13.773 2°55.693 330.4 6.4 327 11.3
2006-04-21 07:11:21 51°13.779 2°55.687 330.2 7 327 11
2006-04-21 07:11:27 51°13.79 2°55.677 330.9 7.3 328 11.9
2006-04-21 07:11:32 51°13.799 2°55.667 331 7.7 328 11.9
2006-04-21 07:11:37 51°13.809 2°55.658 332.1 8.2 330 11.8
2006-04-21 07:11:41 51°13.816 2°55.651 333.8 8.3 331 11.5
2006-04-21 07:11:47 51°13.829 2°55.64 334.4 8.5 331 11.6
2006-04-21 07:11:52 51°13.839 2°55.631 335 8.6 332 11.6
2006-04-21 07:11:57 51°13.85 2°55.623 336.4 8.6 334 11.6
2006-04-21 07:12:03 51°13.863 2°55.613 338 8.7 335 -999
2006-04-21 07:12:08 51°13.874 2°55.604 338.2 8.7 334 -999
2006-04-21 07:12:13 51°13.884 2°55.596 338.1 8.6 334 -999
2006-04-21 07:12:17 51°13.893 2°55.589 338.2 8.6 334 11.8
2006-04-21 07:12:22 51°13.903 2°55.581 338.3 8.6 334 11.7
2006-04-21 07:12:28 51°13.916 2°55.572 338.3 8.5 334 11.7
2006-04-21 07:12:33 51°13.926 2°55.563 338.3 8.4 334 11.7
2006-04-21 07:12:37 51°13.935 2°55.557 338.4 8.4 334 11.5
2006-04-21 07:12:42 51°13.945 2°55.549 338.4 8.4 334 11.6
2006-04-21 07:12:48 51°13.958 2°55.54 338.4 8.4 335 11.6
2006-04-21 07:12:52 51°13.966 2°55.534 339.5 8.3 336 11.6
2006-04-21 07:12:57 51°13.977 2°55.527 340.5 8.3 337 11.6
2006-04-21 07:13:02 51°13.987 2°55.518 339.4 8.3 334 11.6
2006-04-21 07:13:07 51°13.998 2°55.511 338.4 8.3 335 11.6
2006-04-21 07:13:13 51°14.01 2°55.501 338.3 8.3 335 11.6
2006-04-21 07:13:17 51°14.019 2°55.495 338.5 8.3 336 11.6
2006-04-21 07:13:23 51°14.031 2°55.486 338.9 8.3 336 11.6
2006-04-21 07:13:28 51°14.042 2°55.479 339.9 8.2 337 11.7
2006-04-21 07:13:33 51°14.052 2°55.472 339.8 8.2 335 11.7
2006-04-21 07:13:38 51°14.062 2°55.464 339.6 8.2 337 11.7
2006-04-21 07:13:42 51°14.071 2°55.458 339.7 8.3 336 11.7
2006-04-21 07:13:48 51°14.083 2°55.449 339.3 8.2 335 11.6
2006-04-21 07:13:52 51°14.091 2°55.443 338.7 8.2 335 -999
2006-04-21 07:13:58 51°14.104 2°55.434 338.5 8.2 335 -999
2006-04-21 07:14:03 51°14.114 2°55.426 338.2 8.2 334 -999
2006-04-21 07:14:08 51°14.124 2°55.417 337.4 8.2 333 -999
2006-04-21 07:14:13 51°14.134 2°55.409 336.4 8.2 333 -999
2006-04-21 07:14:18 51°14.144 2°55.401 336 8.2 333 11.5
2006-04-21 07:14:23 51°14.154 2°55.392 336 8.2 333 -999
2006-04-21 07:14:27 51°14.162 2°55.385 335.3 8.2 332 11.5
2006-04-21 07:14:33 51°14.174 2°55.374 333.5 8.2 330 11.4
2006-04-21 07:14:37 51°14.182 2°55.366 332.1 8.3 328 11.4
2006-04-21 07:14:43 51°14.193 2°55.354 330.7 8.3 327 -999
2006-04-21 07:14:48 51°14.202 2°55.343 329.6 8.3 325 -999
2006-04-21 07:14:53 51°14.211 2°55.332 327.7 8.3 323 11.4
2006-04-21 07:14:57 51°14.219 2°55.323 326.2 8.3 322 11.4
2006-04-21 07:15:02 51°14.227 2°55.311 324.4 8.3 320 11.4
2006-04-21 07:15:08 51°14.237 2°55.296 322.9 8.3 317 11.4
2006-04-21 07:15:13 51°14.245 2°55.284 320.8 8.2 315 11.4
2006-04-21 07:15:17 51°14.252 2°55.273 318.4 8.2 314 -999
2006-04-21 07:15:23 51°14.261 2°55.257 317.1 8.2 313 -999
2006-04-21 07:15:27 51°14.267 2°55.247 316.6 8.2 313 11.4
2006-04-21 07:15:33 51°14.276 2°55.23 315.8 8.3 312 11.6
2006-04-21 07:15:38 51°14.284 2°55.217 315.5 8.3 311 -999
2006-04-21 07:15:43 51°14.291 2°55.203 314.8 8.2 310 11.7
2006-04-21 07:15:47 51°14.297 2°55.191 314.2 8.3 310 -999
2006-04-21 07:15:52 51°14.304 2°55.177 314.1 8.3 310 11.4
2006-04-21 07:15:57 51°14.312 2°55.163 314.9 8.3 311 11.8
2006-04-21 07:16:03 51°14.321 2°55.146 315 8.3 310 -999
2006-04-21 07:16:08 51°14.328 2°55.132 314.2 8.3 309 -999
2006-04-21 07:16:13 51°14.335 2°55.118 313.3 8.3 309 -999
2006-04-21 07:16:17 51°14.341 2°55.106 313 8.4 309 11.5
2006-04-21 07:16:23 51°14.35 2°55.088 312.8 8.4 308 11.6
2006-04-21 07:16:27 51°14.355 2°55.076 311.7 8.3 306 11.6
2006-04-21 07:16:32 51°14.361 2°55.06 309.6 8.6 303 11.7
2006-04-21 07:16:37 51°14.368 2°55.043 307.1 8.9 302 11.6
2006-04-21 07:16:42 51°14.374 2°55.026 304.8 9.2 299 11.5
2006-04-21 07:16:48 51°14.381 2°55.004 302.8 9.5 299 11.5
2006-04-21 07:16:52 51°14.386 2°54.988 301.5 9.7 297 11.5
2006-04-21 07:16:57 51°14.392 2°54.969 300.7 9.7 297 11.6
2006-04-21 07:17:01 51°14.397 2°54.953 299 10 295 11.5
2006-04-21 07:17:07 51°14.403 2°54.928 296.4 10.1 293 11.7
2006-04-21 07:17:12 51°14.408 2°54.907 294.9 10.2 291 11.4
2006-04-21 07:17:17 51°14.413 2°54.886 293.4 10.2 290 11.7
2006-04-21 07:17:21 51°14.416 2°54.868 290.3 10.3 285 11.7
2006-04-21 07:17:28 51°14.42 2°54.837 287.6 10.3 283 11.5
2006-04-21 07:17:32 51°14.423 2°54.819 285 10.3 282 11.6
2006-04-21 07:17:37 51°14.425 2°54.796 283 10.4 280 11.6
2006-04-21 07:17:42 51°14.427 2°54.773 281.2 10.5 279 11.5
2006-04-21 07:17:47 51°14.429 2°54.75 280.7 10.6 278 11.9
2006-04-21 07:17:53 51°14.431 2°54.721 279 10.8 277 11.8
2006-04-21 07:17:57 51°14.433 2°54.702 278.1 10.8 277 11.7
2006-04-21 07:18:02 51°14.435 2°54.678 278.5 10.9 277 11.7
2006-04-21 07:18:07 51°14.436 2°54.655 277.9 10.8 275 11.3
2006-04-21 07:18:12 51°14.436 2°54.631 275.3 10.7 270 11.5
2006-04-21 07:18:17 51°14.435 2°54.607 271.2 10.7 267 11.8
2006-04-21 07:18:21 51°14.434 2°54.589 267.1 10.7 265 11.4
2006-04-21 07:18:28 51°14.431 2°54.556 265.5 10.7 264 11.9
2006-04-21 07:18:32 51°14.43 2°54.537 264.1 10.8 262 12
2006-04-21 07:18:38 51°14.427 2°54.509 263.5 10.7 262 11.6
2006-04-21 07:18:42 51°14.425 2°54.49 262.7 10.8 260 11.7
2006-04-21 07:18:47 51°14.423 2°54.467 262.3 10.7 261 11.6
2006-04-21 07:18:52 51°14.421 2°54.443 262.1 10.7 261 11.7
2006-04-21 07:18:57 51°14.418 2°54.42 262.1 10.7 261 11.4
2006-04-21 07:19:03 51°14.415 2°54.392 262.1 10.8 261 11.2
2006-04-21 07:19:08 51°14.412 2°54.368 262.3 10.7 260 11
2006-04-21 07:19:12 51°14.41 2°54.35 260.8 10.7 257 11.1
2006-04-21 07:19:17 51°14.406 2°54.328 259.1 10.6 255 10.9
2006-04-21 07:19:23 51°14.4 2°54.302 255.4 10.5 249 10.9
2006-04-21 07:19:28 51°14.393 2°54.281 250.8 10.6 245 10.8
2006-04-21 07:19:32 51°14.388 2°54.264 247 10.6 243 10.9
2006-04-21 07:19:37 51°14.38 2°54.244 244.6 10.5 241 10.9
2006-04-21 07:19:41 51°14.374 2°54.228 242.3 10.4 238 10.9
2006-04-21 07:19:47 51°14.365 2°54.206 240.3 9.9 238 10.8
2006-04-21 07:19:52 51°14.358 2°54.189 238.2 9.3 235 10.8
2006-04-21 07:19:57 51°14.351 2°54.173 236.7 9 234 10.8
2006-04-21 07:20:02 51°14.343 2°54.158 235.8 8.8 233 10.8
2006-04-21 07:20:08 51°14.335 2°54.141 235.5 8.3 233 10.9
2006-04-21 07:20:12 51°14.33 2°54.129 235.1 8.1 233 10.9
2006-04-21 07:20:17 51°14.323 2°54.115 235.4 7.9 234 10.9
2006-04-21 07:20:22 51°14.317 2°54.101 236.4 7.8 234 10.9
2006-04-21 07:20:27 51°14.312 2°54.088 237.9 7.5 236 10.8
2006-04-21 07:20:33 51°14.305 2°54.071 238.6 7.3 237 10.9
2006-04-21 07:20:37 51°14.301 2°54.061 239.5 7.3 238 10.9
2006-04-21 07:20:43 51°14.295 2°54.045 240.5 7.1 238 10.9
2006-04-21 07:20:47 51°14.291 2°54.034 241 6.8 240 10.8
2006-04-21 07:20:52 51°14.286 2°54.021 241.8 6.6 239 10.9
2006-04-21 07:20:58 51°14.281 2°54.007 242.6 6.3 241 10.8
2006-04-21 07:21:02 51°14.278 2°53.997 243 6.1 242 10.8
2006-04-21 07:21:07 51°14.274 2°53.986 243.6 6 242 10.8
2006-04-21 07:21:12 51°14.271 2°53.975 244.3 5.8 242 10.8
2006-04-21 07:21:17 51°14.267 2°53.963 244.5 5.6 243 10.9
2006-04-21 07:21:22 51°14.264 2°53.952 244.7 5.5 244 10.9
2006-04-21 07:21:27 51°14.26 2°53.942 245.1 5.4 243 10.8
2006-04-21 07:21:32 51°14.257 2°53.931 245.3 5.3 245 10.9
2006-04-21 07:21:37 51°14.254 2°53.921 245.4 5.2 244 10.8
2006-04-21 07:21:42 51°14.251 2°53.911 245.6 5.1 246 10.8
2006-04-21 07:21:47 51°14.248 2°53.901 245.8 5 245 10.8
2006-04-21 07:21:52 51°14.245 2°53.891 246.5 5 246 10.9
2006-04-21 07:21:57 51°14.243 2°53.881 247 4.9 246 10.8
2006-04-21 07:22:02 51°14.24 2°53.871 247.8 4.9 248 10.8
2006-04-21 07:22:08 51°14.237 2°53.859 248.7 4.8 248 10.9
2006-04-21 07:22:12 51°14.235 2°53.852 249.4 4.8 249 10.9
2006-04-21 07:22:17 51°14.233 2°53.842 250.4 4.7 250 10.8
2006-04-21 07:22:21 51°14.231 2°53.834 251.1 4.7 250 10.8
2006-04-21 07:22:28 51°14.229 2°53.82 252.3 4.6 252 10.8
2006-04-21 07:22:33 51°14.226 2°53.811 253.1 4.6 252 10.8
2006-04-21 07:22:37 51°14.225 2°53.804 253.1 4.5 252 10.8
2006-04-21 07:22:42 51°14.223 2°53.794 251.9 4.5 250 10.8
2006-04-21 07:22:47 51°14.221 2°53.785 250.6 4.5 250 10.9
2006-04-21 07:22:52 51°14.218 2°53.776 249.3 4.4 248 10.9
2006-04-21 07:22:58 51°14.216 2°53.765 248.2 4.5 249 10.9
2006-04-21 07:23:03 51°14.213 2°53.757 247.1 4.4 245 10.9
2006-04-21 07:23:08 51°14.21 2°53.748 246 4.3 246 10.9
2006-04-21 07:23:13 51°14.208 2°53.74 244.7 4.3 242 10.9
2006-04-21 07:23:17 51°14.205 2°53.733 243.2 4.2 242 10.9
2006-04-21 07:23:22 51°14.202 2°53.725 241.9 4.2 239 10.9
2006-04-21 07:23:28 51°14.199 2°53.715 240.2 4.2 239 10.9
2006-04-21 07:23:32 51°14.196 2°53.709 238.9 4.2 237 10.9
2006-04-21 07:23:37 51°14.193 2°53.701 237.9 4.2 236 10.9
2006-04-21 07:23:42 51°14.19 2°53.694 237.3 4.2 235 10.9
2006-04-21 07:23:47 51°14.186 2°53.686 236.9 4.2 236 11
2006-04-21 07:23:52 51°14.183 2°53.679 236.6 4.2 233 10.9
2006-04-21 07:23:57 51°14.18 2°53.671 236.6 4.2 236 10.9
2006-04-21 07:24:02 51°14.176 2°53.663 236.5 4.2 233 10.9
2006-04-21 07:24:08 51°14.172 2°53.654 236.4 4.2 236 10.9
2006-04-21 07:24:13 51°14.169 2°53.647 236.4 4.2 234 11
2006-04-21 07:24:17 51°14.166 2°53.641 236.6 4.2 235 10.9
2006-04-21 07:24:21 51°14.163 2°53.635 236.7 4.2 234 11
2006-04-21 07:24:28 51°14.159 2°53.624 236.9 4.2 235 11
2006-04-21 07:24:32 51°14.156 2°53.618 237.1 4.2 236 11
2006-04-21 07:24:37 51°14.153 2°53.61 237.3 4.2 236 11
2006-04-21 07:24:42 51°14.149 2°53.603 237.7 4.2 235 11
2006-04-21 07:24:47 51°14.146 2°53.595 238 4.2 237 11
2006-04-21 07:24:52 51°14.143 2°53.587 238.5 4.2 235 11
2006-04-21 07:24:57 51°14.14 2°53.579 238.9 4.2 239 11
2006-04-21 07:25:01 51°14.137 2°53.573 239.4 4.2 236 11
2006-04-21 07:25:07 51°14.134 2°53.564 239.8 4.2 239 11
2006-04-21 07:25:12 51°14.131 2°53.556 240.1 4.2 237 11
2006-04-21 07:25:17 51°14.128 2°53.548 240.3 4.2 239 11
2006-04-21 07:25:22 51°14.125 2°53.54 240.5 4.2 237 11
2006-04-21 07:25:27 51°14.122 2°53.532 240.7 4.2 239 11
2006-04-21 07:25:32 51°14.118 2°53.524 240.8 4.2 237 11
2006-04-21 07:25:37 51°14.115 2°53.516 241 4.2 240 11.1
2006-04-21 07:25:42 51°14.112 2°53.508 241.3 4.3 239 11
2006-04-21 07:25:47 51°14.109 2°53.5 241.6 4.3 239 11
2006-04-21 07:25:51 51°14.107 2°53.493 242 4.3 239 11.1
2006-04-21 07:25:57 51°14.103 2°53.484 242.4 4.3 241 11.1
2006-04-21 07:26:02 51°14.101 2°53.475 243.2 4.3 241 11.1
2006-04-21 07:26:07 51°14.098 2°53.467 244 4.3 242 11.1
2006-04-21 07:26:12 51°14.095 2°53.458 244.7 4.3 243 11.1
2006-04-21 07:26:17 51°14.093 2°53.45 245.4 4.2 245 11
2006-04-21 07:26:23 51°14.09 2°53.44 246.1 4.3 244 11.1
2006-04-21 07:26:27 51°14.088 2°53.433 247 4.3 247 11
2006-04-21 07:26:32 51°14.086 2°53.424 247.6 4.2 247 11.1
2006-04-21 07:26:37 51°14.083 2°53.415 248.6 4.3 247 11.1
2006-04-21 07:26:41 51°14.082 2°53.409 249.3 4.3 248 11.1
2006-04-21 07:26:47 51°14.079 2°53.398 250 4.2 248 11.1
2006-04-21 07:26:52 51°14.077 2°53.389 250.3 4.2 249 11.1
2006-04-21 07:26:57 51°14.075 2°53.38 250.3 4.2 250 11.1
2006-04-21 07:27:03 51°14.072 2°53.37 249.7 4.3 247 11.1
2006-04-21 07:27:07 51°14.07 2°53.363 249.3 4.3 249 11.1
2006-04-21 07:27:13 51°14.067 2°53.353 248.2 4.2 245 11.1
2006-04-21 07:27:18 51°14.065 2°53.344 247.5 4.3 248 11.1
2006-04-21 07:27:23 51°14.062 2°53.336 246 4.2 243 11.1
2006-04-21 07:27:28 51°14.06 2°53.328 245.3 4.2 243 11.1
2006-04-21 07:27:32 51°14.057 2°53.321 244.1 4.2 240 11.1
2006-04-21 07:27:37 51°14.054 2°53.313 242.8 4.2 241 11.1
2006-04-21 07:27:43 51°14.051 2°53.304 241.5 4.2 238 11.2
2006-04-21 07:27:47 51°14.048 2°53.298 240 4.2 237 11.2
2006-04-21 07:27:53 51°14.044 2°53.288 239 4.2 235 11.2
2006-04-21 07:27:58 51°14.041 2°53.281 237.9 4.2 236 11.2
2006-04-21 07:28:03 51°14.037 2°53.273 237.1 4.2 233 11.2
2006-04-21 07:28:07 51°14.035 2°53.267 236.2 4.2 235 11.2
2006-04-21 07:28:12 51°14.031 2°53.26 235.6 4.2 232 11.2
2006-04-21 07:28:17 51°14.028 2°53.253 235.3 4.2 233 11.2
2006-04-21 07:28:21 51°14.025 2°53.247 235.1 4.2 231 11.3
2006-04-21 07:28:27 51°14.02 2°53.238 235 4.2 233 11.2
2006-04-21 07:28:32 51°14.017 2°53.231 234.9 4.2 229 11.2
2006-04-21 07:28:37 51°14.014 2°53.224 234.9 4.2 234 11.2
2006-04-21 07:28:41 51°14.011 2°53.218 234.9 4.2 229 11.2
2006-04-21 07:28:48 51°14.006 2°53.208 234.8 4.2 234 11.2
2006-04-21 07:28:52 51°14.003 2°53.202 234.5 4.2 229 11.2
2006-04-21 07:28:57 51°13.999 2°53.195 234.2 4.2 233 11.2
2006-04-21 07:29:02 51°13.995 2°53.188 234.1 4.2 230 11.2
2006-04-21 07:29:07 51°13.992 2°53.181 233.7 4.2 232 11.2
2006-04-21 07:29:12 51°13.988 2°53.174 233.5 4.2 228 11.2
2006-04-21 07:29:17 51°13.984 2°53.166 233.4 4.2 231 11.2
2006-04-21 07:29:22 51°13.98 2°53.159 233 4.2 229 11.2
2006-04-21 07:29:27 51°13.977 2°53.152 233.1 4.2 231 11.2
2006-04-21 07:29:32 51°13.973 2°53.145 233.7 4.2 232 11.2
2006-04-21 07:29:37 51°13.969 2°53.138 234.5 4.2 232 11.2
2006-04-21 07:29:42 51°13.966 2°53.13 235.7 4.2 233 11.2
2006-04-21 07:29:47 51°13.962 2°53.123 236.4 4.2 235 11.2
2006-04-21 07:29:52 51°13.959 2°53.115 237.4 4.2 234 11.2
2006-04-21 07:29:58 51°13.955 2°53.106 238.4 4.2 236 11.2
2006-04-21 07:30:02 51°13.953 2°53.1 239.2 4.2 237 11.2
2006-04-21 07:30:07 51°13.95 2°53.092 240 4.2 237 11.2
2006-04-21 07:30:12 51°13.947 2°53.084 240.9 4.2 239 11.3
2006-04-21 07:30:17 51°13.944 2°53.076 241.5 4.2 239 11.2
2006-04-21 07:30:22 51°13.941 2°53.068 241.9 4.2 238 11.2
2006-04-21 07:30:28 51°13.937 2°53.058 242.4 4.2 239 11.2
2006-04-21 07:30:32 51°13.935 2°53.052 242.6 4.2 241 11.3
2006-04-21 07:30:37 51°13.932 2°53.044 242.7 4.2 239 11.3
2006-04-21 07:30:42 51°13.929 2°53.036 242.6 4.2 241 11.3
2006-04-21 07:30:47 51°13.926 2°53.028 242 4.2 237 11.3
2006-04-21 07:30:52 51°13.922 2°53.02 241.4 4.2 240 11.3
2006-04-21 07:30:57 51°13.919 2°53.012 240.5 4.2 236 11.3
2006-04-21 07:31:02 51°13.916 2°53.004 239.9 4.3 238 11.3
2006-04-21 07:31:08 51°13.912 2°52.995 239.5 4.2 235 11.3
2006-04-21 07:31:12 51°13.909 2°52.989 239 4.3 238 11.3
2006-04-21 07:31:17 51°13.906 2°52.981 238.7 4.2 233 11.3
2006-04-21 07:31:22 51°13.903 2°52.973 238.9 4.2 237 11.3
2006-04-21 07:31:27 51°13.899 2°52.965 239.1 4.2 234 11.3
2006-04-21 07:31:33 51°13.896 2°52.956 239.5 4.2 237 11.3
2006-04-21 07:31:37 51°13.893 2°52.95 239.9 4.2 236 11.3
2006-04-21 07:31:42 51°13.89 2°52.942 240.4 4.2 239 11.4
2006-04-21 07:31:47 51°13.887 2°52.934 241.2 4.2 238 11.4
2006-04-21 07:31:52 51°13.884 2°52.926 242 4.2 240 11.3
2006-04-21 07:31:57 51°13.881 2°52.918 242.6 4.2 239 11.4
2006-04-21 07:32:01 51°13.879 2°52.911 243.5 4.2 241 11.3
2006-04-21 07:32:07 51°13.875 2°52.901 243.9 4.3 241 11.4
2006-04-21 07:32:12 51°13.873 2°52.893 244.9 4.3 243 11.3
2006-04-21 07:32:17 51°13.87 2°52.884 246 4.3 243 11.4
2006-04-21 07:32:22 51°13.867 2°52.876 246.8 4.3 245 11.4
2006-04-21 07:32:27 51°13.865 2°52.867 247.8 4.2 245 11.4
2006-04-21 07:32:32 51°13.863 2°52.859 248.7 4.3 248 11.4
2006-04-21 07:32:37 51°13.86 2°52.85 249.6 4.3 247 11.4
2006-04-21 07:32:43 51°13.858 2°52.839 250.5 4.3 248 11.4
2006-04-21 07:32:47 51°13.856 2°52.832 251.1 4.3 247 11.5
2006-04-21 07:32:52 51°13.854 2°52.823 251.3 4.3 248 11.5
2006-04-21 07:32:57 51°13.852 2°52.815 251.6 4.3 249 11.4
2006-04-21 07:33:01 51°13.85 2°52.808 251.4 4.3 248 11.5
2006-04-21 07:33:07 51°13.847 2°52.797 250.8 4.3 247 11.5
2006-04-21 07:33:13 51°13.844 2°52.786 250.1 4.3 247 11.5
2006-04-21 07:33:17 51°13.842 2°52.78 249.4 4.3 246 11.5
2006-04-21 07:33:22 51°13.84 2°52.771 248.7 4.3 246 11.4
2006-04-21 07:33:27 51°13.837 2°52.763 247.3 4.3 244 11.5
2006-04-21 07:33:32 51°13.835 2°52.754 246.1 4.2 242 11.5
2006-04-21 07:33:37 51°13.832 2°52.746 244.8 4.3 241 11.5
2006-04-21 07:33:42 51°13.829 2°52.738 243.7 4.3 240 11.5
2006-04-21 07:33:47 51°13.826 2°52.73 242.3 4.2 238 11.5
2006-04-21 07:33:53 51°13.822 2°52.72 241 4.3 238 11.5
2006-04-21 07:33:58 51°13.819 2°52.713 240.5 4.2 236 11.6
2006-04-21 07:34:02 51°13.816 2°52.706 240 4.2 236 11.5
2006-04-21 07:34:07 51°13.813 2°52.699 239.4 4.2 237 11.5
2006-04-21 07:34:12 51°13.809 2°52.691 238.8 4.2 233 11.4
2006-04-21 07:34:18 51°13.806 2°52.682 238.5 4.2 238 11.5
2006-04-21 07:34:21 51°13.803 2°52.677 238.2 4.2 232 11.5
2006-04-21 07:34:27 51°13.8 2°52.668 238 4.2 237 11.5
2006-04-21 07:34:32 51°13.796 2°52.661 237.9 4.2 231 11.5
2006-04-21 07:34:37 51°13.793 2°52.653 237.3 4.2 237 11.5
2006-04-21 07:34:43 51°13.788 2°52.644 237 4.2 230 11.5
2006-04-21 07:34:47 51°13.786 2°52.638 236.1 4.2 234 11.5
2006-04-21 07:34:52 51°13.782 2°52.631 235.7 4.2 228 11.5
2006-04-21 07:34:57 51°13.778 2°52.624 234.8 4.3 231 11.5
2006-04-21 07:35:03 51°13.773 2°52.615 234.4 4.2 228 11.5
2006-04-21 07:35:08 51°13.77 2°52.608 234.3 4.3 233 11.4
2006-04-21 07:35:12 51°13.767 2°52.602 234.1 4.3 229 11.5
2006-04-21 07:35:17 51°13.763 2°52.595 234.2 4.3 231 11.4
2006-04-21 07:35:22 51°13.759 2°52.588 234.2 4.3 229 11.5
2006-04-21 07:35:28 51°13.754 2°52.579 234.3 4.3 229 11.4
2006-04-21 07:35:32 51°13.751 2°52.573 234.4 4.3 230 11.4
2006-04-21 07:35:37 51°13.747 2°52.566 234.5 4.3 230 11.4
2006-04-21 07:35:42 51°13.744 2°52.559 234.8 4.2 230 11.4
2006-04-21 07:35:47 51°13.74 2°52.552 235 4.3 230 11.5
2006-04-21 07:35:52 51°13.736 2°52.544 235.4 4.3 231 11.4
2006-04-21 07:35:57 51°13.733 2°52.537 235.7 4.2 231 11.4
2006-04-21 07:36:02 51°13.729 2°52.53 235.7 4.3 231 11.4
2006-04-21 07:36:07 51°13.725 2°52.522 235.9 4.2 232 11.4
2006-04-21 07:36:13 51°13.721 2°52.513 236.1 4.3 233 11.4
2006-04-21 07:36:18 51°13.717 2°52.506 236.5 4.3 233 11.4
2006-04-21 07:36:21 51°13.715 2°52.501 236.8 4.3 232 11.4
2006-04-21 07:36:27 51°13.711 2°52.492 237.4 4.3 235 11.4
2006-04-21 07:36:32 51°13.707 2°52.484 237.8 4.3 234 11.5
2006-04-21 07:36:37 51°13.704 2°52.477 238.5 4.2 236 11.4
2006-04-21 07:36:42 51°13.701 2°52.469 239 4.2 235 11.5
2006-04-21 07:36:47 51°13.697 2°52.461 239.5 4.3 238 11.4
2006-04-21 07:36:52 51°13.694 2°52.453 239.9 4.2 237 11.4
2006-04-21 07:36:58 51°13.69 2°52.444 240.5 4.3 238 11.4
2006-04-21 07:37:02 51°13.688 2°52.438 240.9 4.2 239 11.4
2006-04-21 07:37:07 51°13.684 2°52.431 240.8 4.1 233 11.4
2006-04-21 07:37:13 51°13.68 2°52.422 237.8 4.1 228 11.4
2006-04-21 07:37:17 51°13.676 2°52.418 231.4 4.2 219 11.4
2006-04-21 07:37:21 51°13.672 2°52.414 222.3 4.1 211 11.4
2006-04-21 07:37:28 51°13.665 2°52.409 216.3 4 203 11.4
2006-04-21 07:37:32 51°13.661 2°52.408 209.1 3.9 194 11.4
2006-04-21 07:37:37 51°13.655 2°52.407 202.3 3.9 190 11.5
2006-04-21 07:37:42 51°13.65 2°52.407 195.2 3.9 182 11.4
2006-04-21 07:37:48 51°13.643 2°52.408 188.3 3.9 173 11.4
2006-04-21 07:37:52 51°13.639 2°52.41 181.3 4 164 11.3
2006-04-21 07:37:57 51°13.634 2°52.414 174.3 4 160 11.4
2006-04-21 07:38:01 51°13.63 2°52.417 167.5 4 150 11.3
2006-04-21 07:38:07 51°13.625 2°52.424 159.2 4 143 11.4
2006-04-21 07:38:12 51°13.621 2°52.43 153.8 4.1 137 11.3
2006-04-21 07:38:17 51°13.617 2°52.437 147.1 4.1 130 11.3
2006-04-21 07:38:22 51°13.614 2°52.445 140.2 4.2 123 11.3
2006-04-21 07:38:27 51°13.612 2°52.453 132 4.2 117 11.3
2006-04-21 07:38:33 51°13.609 2°52.464 126.6 4.3 110 11.2
2006-04-21 07:38:38 51°13.608 2°52.474 119.7 4.3 102 11.2
2006-04-21 07:38:42 51°13.608 2°52.481 112.6 4.3 98 11.2
2006-04-21 07:38:48 51°13.608 2°52.492 105.9 4.2 89 11.2
2006-04-21 07:38:52 51°13.608 2°52.5 99.6 4.1 87 11.2
2006-04-21 07:38:58 51°13.61 2°52.511 93.7 4.1 79 11.2
2006-04-21 07:39:02 51°13.611 2°52.518 88.1 4 76 11.2
2006-04-21 07:39:08 51°13.613 2°52.527 82.5 3.9 69 11.1
2006-04-21 07:39:12 51°13.615 2°52.534 77.3 3.9 70 11.1
2006-04-21 07:39:17 51°13.617 2°52.542 72.5 3.9 63 11.1
2006-04-21 07:39:21 51°13.62 2°52.548 68.4 3.9 60 11.1
2006-04-21 07:39:28 51°13.624 2°52.558 65.3 3.9 58 11.1
2006-04-21 07:39:32 51°13.626 2°52.564 63.6 4 58 11.2
2006-04-21 07:39:37 51°13.629 2°52.571 62.4 4 55 11.1
2006-04-21 07:39:41 51°13.632 2°52.577 61.6 4.1 57 11.2
2006-04-21 07:39:48 51°13.636 2°52.587 61 4.2 54 11.1
2006-04-21 07:39:52 51°13.639 2°52.593 60.6 4.2 53 11.1
2006-04-21 07:39:57 51°13.642 2°52.601 60.6 4.2 55 11.1
2006-04-21 07:40:02 51°13.646 2°52.608 60.4 4.2 53 11.1
2006-04-21 07:40:08 51°13.65 2°52.617 59.8 4.2 54 11.1
2006-04-21 07:40:13 51°13.654 2°52.625 59.4 4.3 52 11.1
2006-04-21 07:40:17 51°13.657 2°52.631 59 4.4 53 11.1
2006-04-21 07:40:22 51°13.66 2°52.638 58.6 4.3 52 11.1
2006-04-21 07:40:27 51°13.664 2°52.646 58.4 4.4 53 11.1
2006-04-21 07:40:32 51°13.668 2°52.653 58.2 4.4 52 11.1
2006-04-21 07:40:37 51°13.672 2°52.661 58 4.4 53 11.1
2006-04-21 07:40:42 51°13.675 2°52.669 58 4.4 52 11.1
2006-04-21 07:40:48 51°13.68 2°52.678 58.1 4.4 53 11.1
2006-04-21 07:40:52 51°13.683 2°52.684 58.2 4.5 51 11.1
2006-04-21 07:40:57 51°13.687 2°52.692 58.2 4.5 52 11.1
2006-04-21 07:41:02 51°13.69 2°52.7 58.2 4.5 51 11
2006-04-21 07:41:07 51°13.694 2°52.708 58.1 4.5 52 11.1
2006-04-21 07:41:12 51°13.698 2°52.715 58 4.5 51 11.1
2006-04-21 07:41:17 51°13.701 2°52.723 58 4.5 53 11.1
2006-04-21 07:41:23 51°13.706 2°52.733 58.2 4.6 50 11.1
2006-04-21 07:41:28 51°13.71 2°52.741 58.6 4.6 53 11.1
2006-04-21 07:41:32 51°13.713 2°52.747 59.1 4.6 52 11.1
2006-04-21 07:41:38 51°13.718 2°52.757 59.5 4.7 51 11
2006-04-21 07:41:43 51°13.722 2°52.766 59.6 4.8 52 11.1
2006-04-21 07:41:48 51°13.726 2°52.774 59.6 4.7 53 11.1
2006-04-21 07:41:52 51°13.729 2°52.781 59.5 4.7 53 11.1
2006-04-21 07:41:57 51°13.733 2°52.789 59.5 4.8 54 11.1
2006-04-21 07:42:03 51°13.738 2°52.799 59.5 4.9 53 11.1
2006-04-21 07:42:08 51°13.742 2°52.808 59.2 4.9 52 11.1
2006-04-21 07:42:13 51°13.746 2°52.816 59.2 4.9 53 11
2006-04-21 07:42:17 51°13.749 2°52.823 59.1 4.9 53 11.1
2006-04-21 07:42:22 51°13.753 2°52.832 59.3 4.9 53 11.1
2006-04-21 07:42:28 51°13.758 2°52.842 59.5 4.9 52 11
2006-04-21 07:42:32 51°13.761 2°52.849 59.7 4.9 55 11
2006-04-21 07:42:37 51°13.765 2°52.858 59.7 4.9 53 11
2006-04-21 07:42:42 51°13.769 2°52.867 59.7 5 54 11
2006-04-21 07:42:47 51°13.773 2°52.875 59.7 5 53 11.1
2006-04-21 07:42:52 51°13.777 2°52.884 59.8 5 53 11
2006-04-21 07:42:57 51°13.781 2°52.893 59.9 4.9 53 11
2006-04-21 07:43:03 51°13.786 2°52.903 59.8 4.9 53 11
2006-04-21 07:43:08 51°13.79 2°52.912 59.5 5 53 11
2006-04-21 07:43:13 51°13.795 2°52.921 59.4 5 52 11
2006-04-21 07:43:17 51°13.798 2°52.928 59.3 5 54 11
2006-04-21 07:43:23 51°13.803 2°52.939 59.3 5 51 11
2006-04-21 07:43:28 51°13.807 2°52.947 59.4 5 54 11
2006-04-21 07:43:32 51°13.811 2°52.955 59.6 5 53 11.1
2006-04-21 07:43:38 51°13.816 2°52.965 60 5.1 53 10.9
2006-04-21 07:43:43 51°13.821 2°52.974 60.1 5.1 52 11
2006-04-21 07:43:47 51°13.824 2°52.982 60.3 5.1 55 11
2006-04-21 07:43:52 51°13.828 2°52.99 60.4 5 52 11
2006-04-21 07:43:57 51°13.832 2°53 60.8 5 54 11
2006-04-21 07:44:03 51°13.837 2°53.01 60.9 5 53 11
2006-04-21 07:44:08 51°13.841 2°53.02 61.2 5.1 54 11
2006-04-21 07:44:13 51°13.845 2°53.028 61.4 5.1 53 11
2006-04-21 07:44:17 51°13.849 2°53.036 61.6 5.1 54 11
2006-04-21 07:44:22 51°13.853 2°53.045 62 5.2 53 10.9
2006-04-21 07:44:28 51°13.858 2°53.056 61.8 5.1 55 10.9
2006-04-21 07:44:32 51°13.861 2°53.063 62 5.1 54 10.9
2006-04-21 07:44:37 51°13.865 2°53.073 62.3 5.1 55 10.9
2006-04-21 07:44:42 51°13.869 2°53.082 62.4 5.1 54 10.9
2006-04-21 07:44:48 51°13.873 2°53.093 62.7 5 57 10.9
2006-04-21 07:44:53 51°13.877 2°53.102 62.9 5 56 10.9
2006-04-21 07:44:57 51°13.88 2°53.109 62.9 5 56 10.9
2006-04-21 07:45:01 51°13.884 2°53.117 62.6 5 56 10.9
2006-04-21 07:45:08 51°13.889 2°53.13 62.5 5 56 10.8
2006-04-21 07:45:12 51°13.893 2°53.137 62.4 5 56 10.9
2006-04-21 07:45:17 51°13.896 2°53.146 62.4 5.1 56 10.9
2006-04-21 07:45:22 51°13.901 2°53.155 62.3 5.1 54 10.8
2006-04-21 07:45:27 51°13.904 2°53.165 62.4 5.1 57 10.8
2006-04-21 07:45:33 51°13.909 2°53.175 62.6 5.1 54 10.9
2006-04-21 07:45:38 51°13.913 2°53.184 62.3 5 55 10.8
2006-04-21 07:45:41 51°13.915 2°53.19 62.3 5 54 10.8
2006-04-21 07:45:47 51°13.92 2°53.201 62 5.1 55 10.8
2006-04-21 07:45:52 51°13.925 2°53.21 61.7 5.1 53 10.8
2006-04-21 07:45:58 51°13.929 2°53.221 61.4 5.1 55 10.8
2006-04-21 07:46:02 51°13.933 2°53.228 61 5 53 10.8
2006-04-21 07:46:07 51°13.937 2°53.237 61 5.1 54 10.8
2006-04-21 07:46:12 51°13.941 2°53.246 60.9 5 53 10.8
2006-04-21 07:46:17 51°13.945 2°53.255 60.7 5 55 10.8
2006-04-21 07:46:23 51°13.951 2°53.266 60.8 5 54 10.8
2006-04-21 07:46:27 51°13.954 2°53.274 60.9 5 55 10.8
2006-04-21 07:46:32 51°13.959 2°53.283 60.9 5.1 53 10.8
2006-04-21 07:46:37 51°13.963 2°53.292 60.8 5 55 10.8
2006-04-21 07:46:43 51°13.968 2°53.302 60.6 5 52 10.8
2006-04-21 07:46:47 51°13.971 2°53.31 60.2 5 54 10.7
2006-04-21 07:46:53 51°13.977 2°53.321 60.1 5.1 51 10.8
2006-04-21 07:46:58 51°13.981 2°53.329 59.7 5.1 54 10.7
2006-04-21 07:47:01 51°13.983 2°53.334 59.8 5 51 10.7
2006-04-21 07:47:07 51°13.988 2°53.345 59.5 5 54 10.7
2006-04-21 07:47:13 51°13.993 2°53.356 59.2 5 52 10.8
2006-04-21 07:47:18 51°13.998 2°53.365 58.7 5 52 10.7
2006-04-21 07:47:22 51°14.001 2°53.372 58.4 5 53 10.7
2006-04-21 07:47:27 51°14.005 2°53.381 58.4 5 52 10.7
2006-04-21 07:47:33 51°14.011 2°53.391 58.1 5 51 10.7
2006-04-21 07:47:37 51°14.014 2°53.398 58.2 5 53 10.7
2006-04-21 07:47:42 51°14.018 2°53.406 58.3 5 50 10.6
2006-04-21 07:47:47 51°14.022 2°53.415 58.4 5 54 10.6
2006-04-21 07:47:53 51°14.027 2°53.426 58.5 5 51 10.7
2006-04-21 07:47:58 51°14.031 2°53.434 58.7 5 54 10.7
2006-04-21 07:48:03 51°14.036 2°53.443 58.8 5 52 10.7
2006-04-21 07:48:07 51°14.039 2°53.45 59.2 5 53 10.6
2006-04-21 07:48:12 51°14.043 2°53.459 59.4 5 52 10.7
2006-04-21 07:48:18 51°14.048 2°53.47 59.4 5 54 10.7
2006-04-21 07:48:21 51°14.051 2°53.475 59.3 5 51 10.6
2006-04-21 07:48:27 51°14.055 2°53.486 59.3 5 55 10.7
2006-04-21 07:48:33 51°14.061 2°53.496 59.5 5 52 10.6
2006-04-21 07:48:38 51°14.065 2°53.505 59.6 5 54 10.7
2006-04-21 07:48:43 51°14.069 2°53.514 60 5 53 10.6
2006-04-21 07:48:47 51°14.072 2°53.521 60.4 5 55 10.7
2006-04-21 07:48:53 51°14.076 2°53.532 60.8 5 54 10.6
2006-04-21 07:48:57 51°14.08 2°53.539 61 5 55 10.6
2006-04-21 07:49:03 51°14.085 2°53.55 61 5 55 10.6
2006-04-21 07:49:08 51°14.089 2°53.559 60.9 5 54 10.6
2006-04-21 07:49:12 51°14.092 2°53.566 60.8 5 54 10.6
2006-04-21 07:49:17 51°14.096 2°53.574 60.1 5 53 10.6
2006-04-21 07:49:22 51°14.1 2°53.583 59.3 5 53 10.6
2006-04-21 07:49:28 51°14.105 2°53.594 58.3 5 51 10.6
2006-04-21 07:49:33 51°14.109 2°53.602 57.3 5 51 10.6
2006-04-21 07:49:37 51°14.113 2°53.609 56.6 5 51 10.6
2006-04-21 07:49:42 51°14.117 2°53.618 56.4 5 50 10.6
2006-04-21 07:49:47 51°14.122 2°53.627 56.2 5 51 10.6
2006-04-21 07:49:53 51°14.127 2°53.637 56.2 5 50 10.6
2006-04-21 07:49:58 51°14.131 2°53.645 56.2 5 51 10.5
2006-04-21 07:50:02 51°14.135 2°53.652 56.4 5 50 10.5
2006-04-21 07:50:07 51°14.139 2°53.661 56.4 5 51 10.6
2006-04-21 07:50:12 51°14.143 2°53.669 56.6 5 51 10.6
2006-04-21 07:50:17 51°14.148 2°53.678 56.8 5 51 10.6
2006-04-21 07:50:22 51°14.152 2°53.686 57.5 5 52 10.6
2006-04-21 07:50:27 51°14.156 2°53.695 58.1 5 53 10.5
2006-04-21 07:50:32 51°14.16 2°53.703 58.7 5 51 10.5
2006-04-21 07:50:37 51°14.164 2°53.712 59.2 4.9 54 10.5
2006-04-21 07:50:43 51°14.169 2°53.723 59.5 4.8 54 10.5
2006-04-21 07:50:48 51°14.172 2°53.731 59.7 4.7 55 10.5
2006-04-21 07:50:52 51°14.175 2°53.738 60.1 4.6 55 10.5
2006-04-21 07:50:57 51°14.179 2°53.746 60.3 4.6 55 10.5
2006-04-21 07:51:03 51°14.183 2°53.755 60.4 4.5 56 10.5
2006-04-21 07:51:07 51°14.186 2°53.762 60.4 4.4 53 10.5
2006-04-21 07:51:13 51°14.19 2°53.771 60.3 4.3 54 10.5
2006-04-21 07:51:17 51°14.193 2°53.777 60.1 4.2 54 10.5
2006-04-21 07:51:22 51°14.196 2°53.784 59.8 4.1 55 10.6
2006-04-21 07:51:27 51°14.2 2°53.792 59.1 4.1 52 10.5
2006-04-21 07:51:32 51°14.203 2°53.798 58.1 4 52 10.5
2006-04-21 07:51:37 51°14.207 2°53.805 57.8 4 51 10.5
2006-04-21 07:51:42 51°14.21 2°53.812 57.3 3.9 52 10.5
2006-04-21 07:51:47 51°14.213 2°53.819 56.9 3.9 49 10.5
2006-04-21 07:51:52 51°14.217 2°53.825 56.3 3.9 51 10.5
2006-04-21 07:51:57 51°14.22 2°53.832 56.2 3.8 50 10.5
2006-04-21 07:52:02 51°14.223 2°53.838 56.1 3.7 52 10.5
2006-04-21 07:52:07 51°14.226 2°53.844 55.8 3.7 49 10.5
2006-04-21 07:52:12 51°14.23 2°53.85 55.8 3.6 51 10.5
2006-04-21 07:52:17 51°14.233 2°53.856 55.6 3.6 48 10.5
2006-04-21 07:52:22 51°14.236 2°53.862 55.3 3.6 49 10.5
2006-04-21 07:52:27 51°14.239 2°53.868 55.2 3.5 50 10.5
2006-04-21 07:52:32 51°14.242 2°53.874 55 3.5 49 10.5
2006-04-21 07:52:38 51°14.246 2°53.881 54.9 3.5 49 10.5
2006-04-21 07:52:42 51°14.248 2°53.885 54.8 3.4 50 10.5
2006-04-21 07:52:47 51°14.251 2°53.891 54.5 3.4 48 10.7
2006-04-21 07:52:52 51°14.255 2°53.896 54.5 3.4 49 10.6
2006-04-21 07:52:57 51°14.258 2°53.902 54.4 3.3 48 10.5
2006-04-21 07:53:02 51°14.261 2°53.907 54.4 3.3 48 10.5
2006-04-21 07:53:07 51°14.264 2°53.913 54.4 3.3 49 10.6
2006-04-21 07:53:13 51°14.267 2°53.919 54.3 3.3 50 10.6
2006-04-21 07:53:17 51°14.27 2°53.924 54.3 3.2 47 10.5
2006-04-21 07:53:23 51°14.274 2°53.93 54.2 3.2 47 10.6
2006-04-21 07:53:28 51°14.276 2°53.935 53.8 3.1 47 10.6
2006-04-21 07:53:32 51°14.279 2°53.939 52.8 3.1 47 10.6
2006-04-21 07:53:37 51°14.282 2°53.944 51.7 3.1 47 10.6
2006-04-21 07:53:43 51°14.286 2°53.949 50 3 41 10.6
2006-04-21 07:53:48 51°14.289 2°53.954 48.1 3 46 10.6
2006-04-21 07:53:53 51°14.292 2°53.958 46.5 2.9 39 10.5
2006-04-21 07:53:58 51°14.295 2°53.962 44.3 2.9 40 10.6
2006-04-21 07:54:03 51°14.298 2°53.966 42.5 2.9 38 10.6
2006-04-21 07:54:07 51°14.3 2°53.968 39.9 2.8 35 10.6
2006-04-21 07:54:13 51°14.304 2°53.973 38.1 2.8 35 10.6
2006-04-21 07:54:18 51°14.307 2°53.976 35.5 2.8 32 10.6
2006-04-21 07:54:22 51°14.31 2°53.978 33.2 2.7 30 10.6
2006-04-21 07:54:27 51°14.313 2°53.981 31.4 2.7 29 10.6
2006-04-21 07:54:33 51°14.317 2°53.985 29.8 2.7 27 10.6
2006-04-21 07:54:38 51°14.321 2°53.987 28.5 2.7 28 10.6
2006-04-21 07:54:43 51°14.324 2°53.99 27.7 2.6 25 10.6
2006-04-21 07:54:47 51°14.327 2°53.992 26.6 2.6 26 10.6
2006-04-21 07:54:51 51°14.329 2°53.994 25.6 2.6 23 10.6
2006-04-21 07:54:58 51°14.334 2°53.998 24.9 2.6 25 10.6
2006-04-21 07:55:02 51°14.337 2°53.999 24.1 2.6 21 10.6
2006-04-21 07:55:07 51°14.34 2°54.002 23.6 2.5 25 10.7
2006-04-21 07:55:12 51°14.343 2°54.004 22.7 2.5 19 10.6
2006-04-21 07:55:17 51°14.346 2°54.006 22 2.5 23 10.7
2006-04-21 07:55:23 51°14.35 2°54.008 21.5 2.5 21 10.7
2006-04-21 07:55:27 51°14.352 2°54.01 20.9 2.5 20 10.7
2006-04-21 07:55:32 51°14.356 2°54.012 20.3 2.4 20 10.7
2006-04-21 07:55:37 51°14.359 2°54.014 19.9 2.4 19 10.6
2006-04-21 07:55:43 51°14.362 2°54.015 19.3 2.3 17 10.6
2006-04-21 07:55:48 51°14.365 2°54.017 18.9 2.3 20 10.7
2006-04-21 07:55:51 51°14.367 2°54.018 18.7 2.2 18 10.7
2006-04-21 07:55:58 51°14.371 2°54.02 18.2 2.2 18 10.7
2006-04-21 07:56:03 51°14.374 2°54.021 17.8 2.2 19 10.7
2006-04-21 07:56:07 51°14.376 2°54.023 17.1 2.2 17 10.6
2006-04-21 07:56:13 51°14.379 2°54.024 16.6 2.1 17 10.7
2006-04-21 07:56:17 51°14.382 2°54.026 16 2.1 16 10.7
2006-04-21 07:56:22 51°14.384 2°54.027 15.3 2.1 16 10.7
2006-04-21 07:56:28 51°14.387 2°54.028 14.6 2 13 10.7
2006-04-21 07:56:33 51°14.39 2°54.029 14.1 2 17 10.7
2006-04-21 07:56:37 51°14.392 2°54.03 13.4 2 11 10.7
2006-04-21 07:56:41 51°14.394 2°54.031 12.8 1.9 16 10.7
2006-04-21 07:56:47 51°14.397 2°54.032 12.4 1.9 12 10.7
2006-04-21 07:56:53 51°14.4 2°54.033 11.8 1.9 13 10.7
2006-04-21 07:56:57 51°14.403 2°54.034 11.3 2 9 10.7
2006-04-21 07:57:02 51°14.406 2°54.035 10 2.4 8 10.7
2006-04-21 07:57:07 51°14.41 2°54.035 7.2 2.8 2 10.7
2006-04-21 07:57:12 51°14.414 2°54.034 2.7 3.1 357 10.7
2006-04-21 07:57:17 51°14.419 2°54.033 354.5 3.4 350 10.7
2006-04-21 07:57:23 51°14.424 2°54.029 346.9 3.6 341 10.8
2006-04-21 07:57:27 51°14.428 2°54.026 339 3.7 334 10.8
2006-04-21 07:57:32 51°14.432 2°54.021 331.2 3.8 327 10.7
2006-04-21 07:57:37 51°14.436 2°54.016 323.6 3.9 320 10.7
2006-04-21 07:57:43 51°14.441 2°54.007 317.3 4 311 10.8
2006-04-21 07:57:48 51°14.444 2°54 308.1 4.1 305 10.8
2006-04-21 07:57:53 51°14.446 2°53.991 301.9 4.1 295 10.8
2006-04-21 07:57:57 51°14.448 2°53.984 294.1 4.1 289 10.8
2006-04-21 07:58:01 51°14.448 2°53.977 284.9 4.1 281 10.8
2006-04-21 07:58:08 51°14.449 2°53.965 277.2 3.9 272 10.8
2006-04-21 07:58:12 51°14.448 2°53.958 270.9 3.8 269 10.8
2006-04-21 07:58:17 51°14.448 2°53.95 267.2 3.7 264 10.8
2006-04-21 07:58:21 51°14.447 2°53.944 262.7 3.6 260 10.8
2006-04-21 07:58:27 51°14.446 2°53.935 257.7 3.5 256 10.8
2006-04-21 07:58:32 51°14.444 2°53.928 253.7 3.5 252 10.9
2006-04-21 07:58:37 51°14.442 2°53.921 249.6 3.4 247 10.8
2006-04-21 07:58:43 51°14.44 2°53.913 246.5 3.4 244 10.8
2006-04-21 07:58:47 51°14.438 2°53.907 242.3 3.4 241 10.9
2006-04-21 07:58:53 51°14.435 2°53.899 240.1 3.5 238 10.9
2006-04-21 07:58:58 51°14.432 2°53.893 238.5 3.5 238 10.9
2006-04-21 07:59:02 51°14.43 2°53.888 237.3 3.5 237 10.9
2006-04-21 07:59:07 51°14.427 2°53.882 236.5 3.5 233 10.8
2006-04-21 07:59:13 51°14.424 2°53.874 235.3 3.6 237 10.9
2006-04-21 07:59:18 51°14.421 2°53.867 234.5 3.6 230 10.9
2006-04-21 07:59:23 51°14.417 2°53.861 233.7 3.6 233 10.8
2006-04-21 07:59:28 51°14.414 2°53.855 232.5 3.7 228 10.9
2006-04-21 07:59:32 51°14.412 2°53.85 231.6 3.7 232 10.9
2006-04-21 07:59:37 51°14.408 2°53.844 230.5 3.7 224 10.9
2006-04-21 07:59:42 51°14.404 2°53.838 230 3.8 229 10.8
2006-04-21 07:59:47 51°14.401 2°53.831 229.3 3.8 226 10.9
2006-04-21 07:59:52 51°14.397 2°53.825 228.8 3.9 229 10.8
2006-04-21 07:59:57 51°14.393 2°53.819 228.5 3.9 223 10.9
2006-04-21 08:00:03 51°14.389 2°53.812 227.9 3.9 226 10.9
2006-04-21 08:00:08 51°14.385 2°53.806 227.7 3.9 224 10.9
2006-04-21 08:00:13 51°14.381 2°53.8 227.1 3.9 226 10.8
2006-04-21 08:00:17 51°14.378 2°53.795 227.2 3.9 224 10.9
2006-04-21 08:00:22 51°14.374 2°53.789 226.6 4 225 10.9
2006-04-21 08:00:27 51°14.37 2°53.783 226.7 4 223 10.9
2006-04-21 08:00:32 51°14.366 2°53.777 226.4 4 225 10.8
2006-04-21 08:00:37 51°14.362 2°53.771 226.4 4 224 10.8
2006-04-21 08:00:42 51°14.358 2°53.764 226.1 4.1 226 10.9
2006-04-21 08:00:47 51°14.354 2°53.759 226.1 4 223 10.8
2006-04-21 08:00:52 51°14.35 2°53.752 225.8 4.1 226 10.8
2006-04-21 08:00:57 51°14.346 2°53.746 225.8 4.1 223 10.8
2006-04-21 08:01:02 51°14.342 2°53.74 226.1 4.1 226 10.8
2006-04-21 08:01:07 51°14.337 2°53.733 226.3 4.1 224 10.8
2006-04-21 08:01:12 51°14.334 2°53.727 227.3 4 227 10.8
2006-04-21 08:01:17 51°14.33 2°53.721 228.2 4.1 226 10.8
2006-04-21 08:01:23 51°14.325 2°53.712 229.6 4.1 229 10.8
2006-04-21 08:01:27 51°14.322 2°53.707 231.5 4.1 229 10.8
2006-04-21 08:01:32 51°14.319 2°53.7 233.5 4.1 233 10.8
2006-04-21 08:01:37 51°14.316 2°53.692 235.4 4.1 233 10.9
2006-04-21 08:01:41 51°14.313 2°53.686 237.4 4.1 236 10.8
2006-04-21 08:01:47 51°14.309 2°53.677 238.7 4.1 236 10.9
2006-04-21 08:01:52 51°14.306 2°53.67 240.1 4.1 237 10.8
2006-04-21 08:01:58 51°14.303 2°53.66 240.9 4.1 240 10.8
2006-04-21 08:02:03 51°14.3 2°53.652 241.9 4.1 240 10.8
2006-04-21 08:02:07 51°14.298 2°53.646 242.8 4.1 242 10.8
2006-04-21 08:02:12 51°14.295 2°53.637 243.7 4.1 243 10.8
2006-04-21 08:02:17 51°14.293 2°53.629 244.5 4.1 241 10.8
2006-04-21 08:02:23 51°14.289 2°53.62 245.2 4.1 244 10.8
2006-04-21 08:02:28 51°14.287 2°53.611 245.6 4.2 244 10.8
2006-04-21 08:02:32 51°14.285 2°53.605 246.4 4.1 246 10.7
2006-04-21 08:02:37 51°14.283 2°53.596 247 4.2 244 10.8
2006-04-21 08:02:43 51°14.28 2°53.586 247.9 4.2 247 10.8
2006-04-21 08:02:47 51°14.278 2°53.579 248.8 4.1 246 10.9
2006-04-21 08:02:53 51°14.276 2°53.569 249.4 4.2 249 10.8
2006-04-21 08:02:57 51°14.274 2°53.562 250 4.2 249 10.8
2006-04-21 08:03:02 51°14.272 2°53.553 250.8 4.2 251 10.8
2006-04-21 08:03:08 51°14.27 2°53.543 251.5 4.2 251 10.8
2006-04-21 08:03:13 51°14.268 2°53.534 251.8 4.2 252 10.9
2006-04-21 08:03:17 51°14.267 2°53.527 252.4 4.2 250 10.8
2006-04-21 08:03:22 51°14.265 2°53.518 252.7 4.2 253 10.8
2006-04-21 08:03:27 51°14.263 2°53.509 253 4.2 251 10.8
2006-04-21 08:03:33 51°14.261 2°53.499 253 4.2 254 10.9
2006-04-21 08:03:37 51°14.26 2°53.492 252.5 4.2 249 10.9
2006-04-21 08:03:43 51°14.257 2°53.481 252 4.2 252 10.8
2006-04-21 08:03:47 51°14.256 2°53.475 251.3 4.1 247 10.9
2006-04-21 08:03:52 51°14.254 2°53.466 250.5 4.2 253 10.8
2006-04-21 08:03:57 51°14.251 2°53.458 248.8 4.1 247 10.8
2006-04-21 08:04:03 51°14.248 2°53.448 247.3 4.1 246 10.9
2006-04-21 08:04:07 51°14.247 2°53.442 245.5 4.1 242 10.9
2006-04-21 08:04:12 51°14.244 2°53.434 243.7 4 242 10.8
2006-04-21 08:04:17 51°14.241 2°53.426 241.4 4 240 10.9
2006-04-21 08:04:23 51°14.237 2°53.417 240.2 4 239 10.9
2006-04-21 08:04:27 51°14.235 2°53.411 238.8 4 236 10.9
2006-04-21 08:04:32 51°14.232 2°53.404 237.7 4 237 10.9
2006-04-21 08:04:37 51°14.229 2°53.396 237.1 4 234 10.9
2006-04-21 08:04:43 51°14.225 2°53.388 236.6 4 236 10.9
2006-04-21 08:04:47 51°14.222 2°53.382 236.3 4 234 10.9
2006-04-21 08:04:52 51°14.219 2°53.374 235.8 4.1 236 10.9
2006-04-21 08:04:57 51°14.216 2°53.367 235.8 4.1 234 10.9
2006-04-21 08:05:02 51°14.212 2°53.36 235.8 4.1 233 10.9
2006-04-21 08:05:08 51°14.208 2°53.351 236 4.1 236 10.9
2006-04-21 08:05:13 51°14.205 2°53.344 236.7 4.1 233 10.9
2006-04-21 08:05:17 51°14.203 2°53.338 237.3 4.1 239 10.9
2006-04-21 08:05:22 51°14.199 2°53.331 238.4 4.1 234 11
2006-04-21 08:05:27 51°14.197 2°53.323 239.3 4.1 242 11
2006-04-21 08:05:32 51°14.194 2°53.315 240.2 4.1 237 11
2006-04-21 08:05:38 51°14.191 2°53.305 241.3 4.1 243 11
2006-04-21 08:05:42 51°14.188 2°53.299 242.4 4.1 239 11
2006-04-21 08:05:47 51°14.186 2°53.291 243.8 4.1 244 11
2006-04-21 08:05:53 51°14.182 2°53.282 244.5 3.9 240 11
2006-04-21 08:05:57 51°14.18 2°53.276 242.9 3.8 239 11.1
2006-04-21 08:06:03 51°14.176 2°53.269 239 3.6 231 11
2006-04-21 08:06:07 51°14.174 2°53.264 233.9 3.6 230 11
2006-04-21 08:06:12 51°14.17 2°53.259 229 3.4 223 11
2006-04-21 08:06:17 51°14.166 2°53.255 222.6 3.3 217 11
2006-04-21 08:06:22 51°14.163 2°53.252 218.7 3.2 214 11
2006-04-21 08:06:27 51°14.159 2°53.249 213.3 3.1 203 11
2006-04-21 08:06:32 51°14.155 2°53.247 208.7 3.1 201 11
2006-04-21 08:06:38 51°14.15 2°53.244 203.2 3 193 11
2006-04-21 08:06:43 51°14.146 2°53.244 198.4 2.9 190 11
2006-04-21 08:06:48 51°14.142 2°53.244 193.2 2.9 183 11
2006-04-21 08:06:52 51°14.139 2°53.244 188.3 2.8 181 11
2006-04-21 08:06:57 51°14.135 2°53.245 183.6 2.9 173 11
2006-04-21 08:07:03 51°14.13 2°53.246 178.6 2.8 169 11
2006-04-21 08:07:08 51°14.126 2°53.249 173.9 2.9 163 11
2006-04-21 08:07:13 51°14.123 2°53.251 168.9 2.8 158 11
2006-04-21 08:07:17 51°14.12 2°53.254 164 2.8 152 11
2006-04-21 08:07:22 51°14.117 2°53.257 159 2.9 147 11.1
2006-04-21 08:07:28 51°14.113 2°53.262 154.1 2.8 142 11
2006-04-21 08:07:31 51°14.111 2°53.265 149.4 2.9 135 11
2006-04-21 08:07:37 51°14.108 2°53.27 144.1 2.9 134 10.9
2006-04-21 08:07:43 51°14.106 2°53.277 139 2.9 126 10.8
2006-04-21 08:07:48 51°14.103 2°53.282 134 2.9 121 10.8
2006-04-21 08:07:52 51°14.102 2°53.287 129.2 2.9 115 10.8
2006-04-21 08:07:57 51°14.101 2°53.293 124.1 2.9 112 10.8
2006-04-21 08:08:02 51°14.1 2°53.299 119.1 3 106 10.9
2006-04-21 08:08:07 51°14.099 2°53.306 114.2 3 101 10.8
2006-04-21 08:08:13 51°14.098 2°53.314 109.3 3 98 10.8
2006-04-21 08:08:17 51°14.098 2°53.319 104.3 3 92 10.8
2006-04-21 08:08:22 51°14.098 2°53.326 99.4 3.1 90 10.8
2006-04-21 08:08:27 51°14.099 2°53.333 94.4 3.1 82 10.8
2006-04-21 08:08:32 51°14.1 2°53.34 89.4 3.1 80 10.8
2006-04-21 08:08:37 51°14.101 2°53.346 84.6 3.1 74 10.8
2006-04-21 08:08:43 51°14.103 2°53.354 79.6 3.2 72 10.7
2006-04-21 08:08:47 51°14.104 2°53.36 75.1 3.3 67 10.7
2006-04-21 08:08:52 51°14.106 2°53.367 71.8 3.4 67 10.8
2006-04-21 08:08:57 51°14.109 2°53.373 69.4 3.5 63 10.7
2006-04-21 08:09:01 51°14.11 2°53.379 67.6 3.6 63 10.7
2006-04-21 08:09:07 51°14.113 2°53.387 66.5 3.7 61 10.7
2006-04-21 08:09:12 51°14.116 2°53.395 65.6 3.7 61 10.7
2006-04-21 08:09:17 51°14.119 2°53.402 64.7 3.8 60 10.7
2006-04-21 08:09:23 51°14.122 2°53.411 64.4 3.9 60 10.8
2006-04-21 08:09:27 51°14.124 2°53.417 63.6 4 59 10.7
2006-04-21 08:09:33 51°14.128 2°53.426 63.1 4.1 59 10.7
2006-04-21 08:09:37 51°14.13 2°53.433 62.5 4.2 58 10.7
2006-04-21 08:09:42 51°14.134 2°53.441 61.9 4.4 58 10.7
2006-04-21 08:09:48 51°14.138 2°53.451 61.6 4.5 56 10.7
2006-04-21 08:09:53 51°14.142 2°53.46 61.1 4.6 58 10.6
2006-04-21 08:09:57 51°14.145 2°53.467 60.8 4.8 55 10.6
2006-04-21 08:10:02 51°14.148 2°53.476 60.5 5 58 10.6
2006-04-21 08:10:07 51°14.153 2°53.486 60 5.3 54 10.6
2006-04-21 08:10:12 51°14.157 2°53.496 60 5.5 57 10.6
2006-04-21 08:10:18 51°14.162 2°53.509 60.2 5.7 56 10.6
2006-04-21 08:10:22 51°14.166 2°53.518 60.7 5.9 57 10.6
2006-04-21 08:10:27 51°14.17 2°53.529 61.2 6.1 57 10.6
2006-04-21 08:10:33 51°14.176 2°53.543 61.8 6.2 59 10.6
2006-04-21 08:10:37 51°14.18 2°53.552 62.4 6.3 58 10.6
2006-04-21 08:10:43 51°14.185 2°53.567 62.8 6.2 60 10.5
2006-04-21 08:10:47 51°14.188 2°53.576 63.3 6.2 59 10.6
2006-04-21 08:10:52 51°14.193 2°53.588 63.9 6.2 60 10.5
2006-04-21 08:10:57 51°14.197 2°53.599 64.2 6.2 59 10.5
2006-04-21 08:11:03 51°14.202 2°53.614 64.5 6.2 61 10.5
2006-04-21 08:11:07 51°14.206 2°53.623 64.9 6.2 60 10.5
2006-04-21 08:11:12 51°14.21 2°53.635 64.8 6.2 61 10.5
2006-04-21 08:11:18 51°14.215 2°53.649 65.3 6.2 60 10.5
2006-04-21 08:11:21 51°14.217 2°53.657 65.3 6.2 63 10.5
2006-04-21 08:11:28 51°14.223 2°53.673 65.3 6.2 59 10.6
2006-04-21 08:11:32 51°14.226 2°53.683 65.3 6.2 62 10.5
2006-04-21 08:11:37 51°14.231 2°53.695 65.3 6.2 59 10.5
2006-04-21 08:11:41 51°14.234 2°53.705 65.3 6 62 10.5
2006-04-21 08:11:48 51°14.239 2°53.72 65.6 5.8 60 10.5
2006-04-21 08:11:52 51°14.242 2°53.729 65.7 5.7 62 10.5
2006-04-21 08:11:57 51°14.246 2°53.74 66 5.6 61 10.4
2006-04-21 08:12:01 51°14.249 2°53.748 66 5.5 62 10.5
2006-04-21 08:12:07 51°14.253 2°53.761 66 5.4 61 10.4
2006-04-21 08:12:13 51°14.257 2°53.774 66 5.3 62 10.4
2006-04-21 08:12:17 51°14.26 2°53.782 66.1 5.2 61 10.4
2006-04-21 08:12:23 51°14.263 2°53.794 66.2 5.1 63 10.4
2006-04-21 08:12:28 51°14.267 2°53.804 66.3 5 62 10.4
2006-04-21 08:12:33 51°14.27 2°53.813 66.5 4.9 62 10.4
2006-04-21 08:12:37 51°14.272 2°53.82 66.7 4.8 63 10.4
2006-04-21 08:12:42 51°14.275 2°53.83 66.8 4.8 63 10.4
2006-04-21 08:12:47 51°14.278 2°53.839 67.1 4.7 62 10.4
2006-04-21 08:12:53 51°14.282 2°53.85 67.5 4.6 64 10.4
2006-04-21 08:12:57 51°14.284 2°53.857 67.7 4.6 63 10.3
2006-04-21 08:13:02 51°14.287 2°53.866 68.2 4.5 63 10.4
2006-04-21 08:13:07 51°14.29 2°53.875 68.4 4.5 63 10.4
2006-04-21 08:13:12 51°14.293 2°53.884 68.7 4.5 64 10.4
2006-04-21 08:13:17 51°14.295 2°53.893 69 4.5 65 10.4
2006-04-21 08:13:23 51°14.298 2°53.904 69.2 4.6 65 10.4
2006-04-21 08:13:27 51°14.301 2°53.911 69.3 4.6 64 10.4
2006-04-21 08:13:32 51°14.304 2°53.921 69.2 4.7 66 10.3
2006-04-21 08:13:37 51°14.307 2°53.93 69 4.8 63 10.4
2006-04-21 08:13:43 51°14.31 2°53.942 68.6 4.9 64 10.4
2006-04-21 08:13:48 51°14.313 2°53.952 68.3 5 63 10.4
2006-04-21 08:13:52 51°14.316 2°53.96 67.9 5.1 64 10.4
2006-04-21 08:13:57 51°14.319 2°53.97 67.6 5.2 62 10.4
2006-04-21 08:14:03 51°14.323 2°53.983 67.4 5.3 63 10.4
2006-04-21 08:14:08 51°14.327 2°53.993 67.4 5.3 62 10.5
2006-04-21 08:14:13 51°14.33 2°54.004 67.4 5.5 63 10.4
2006-04-21 08:14:18 51°14.334 2°54.015 67.5 5.5 63 10.4
2006-04-21 08:14:23 51°14.337 2°54.026 67.7 5.5 64 10.4
2006-04-21 08:14:28 51°14.34 2°54.037 68.2 5.6 63 10.4
2006-04-21 08:14:33 51°14.343 2°54.048 68.8 5.6 66 10.4
2006-04-21 08:14:37 51°14.346 2°54.057 69.3 5.7 63 10.4
2006-04-21 08:14:42 51°14.35 2°54.069 69.8 5.7 66 10.3
2006-04-21 08:14:47 51°14.353 2°54.081 70.2 5.8 65 10.4
2006-04-21 08:14:53 51°14.357 2°54.095 70.2 5.8 66 10.3
2006-04-21 08:14:58 51°14.361 2°54.106 70 5.9 65 10.4
2006-04-21 08:15:03 51°14.364 2°54.118 69.9 6 67 10.3
2006-04-21 08:15:07 51°14.367 2°54.128 69.9 6.1 64 10.4
2006-04-21 08:15:12 51°14.371 2°54.142 70.1 6.4 67 10.4
2006-04-21 08:15:17 51°14.375 2°54.155 70.3 6.6 65 10.3
2006-04-21 08:15:21 51°14.377 2°54.166 70.3 6.8 66 10.3
2006-04-21 08:15:27 51°14.382 2°54.183 69.6 7 64 10.3
2006-04-21 08:15:31 51°14.386 2°54.194 68.9 7 65 10.4
2006-04-21 08:15:37 51°14.391 2°54.21 68 6.9 64 10.4
2006-04-21 08:15:41 51°14.395 2°54.221 67.3 6.8 62 10.3
2006-04-21 08:15:48 51°14.401 2°54.24 66.6 6.8 62 10.4
2006-04-21 08:15:52 51°14.405 2°54.25 66.4 6.8 62 10.4
2006-04-21 08:15:57 51°14.409 2°54.263 66.2 6.8 61 10.4
2006-04-21 08:16:03 51°14.415 2°54.279 66.2 6.8 63 10.4
2006-04-21 08:16:08 51°14.419 2°54.292 66.2 6.8 60 10.4
2006-04-21 08:16:13 51°14.423 2°54.305 66.1 6.7 63 10.5
2006-04-21 08:16:17 51°14.427 2°54.316 66.4 6.7 61 10.5
2006-04-21 08:16:21 51°14.43 2°54.326 66.7 6.6 64 10.5
2006-04-21 08:16:28 51°14.436 2°54.344 67.4 6.5 63 10.7
2006-04-21 08:16:32 51°14.439 2°54.354 67.9 6.4 64 11
2006-04-21 08:16:38 51°14.444 2°54.369 68.8 6.3 65 11.1
2006-04-21 08:16:41 51°14.446 2°54.377 70.5 6.1 68 11.1
2006-04-21 08:16:47 51°14.449 2°54.391 72.8 5.9 68 11.2
2006-04-21 08:16:52 51°14.451 2°54.403 74.7 5.6 71 11.2
2006-04-21 08:16:57 51°14.454 2°54.414 76.5 5.5 70 11.4
2006-04-21 08:17:03 51°14.456 2°54.428 77.7 5.3 74 11.5
2006-04-21 08:17:07 51°14.457 2°54.436 79.7 5.2 73 11.4
2006-04-21 08:17:13 51°14.459 2°54.449 81.3 5 76 11.5
2006-04-21 08:17:17 51°14.46 2°54.458 82.7 4.9 77 11.6
2006-04-21 08:17:22 51°14.462 2°54.468 84.1 4.8 78 11.5
2006-04-21 08:17:27 51°14.463 2°54.478 85.6 4.6 81 11.4
2006-04-21 08:17:33 51°14.464 2°54.49 87 4.5 81 11.5
2006-04-21 08:17:37 51°14.464 2°54.497 88.8 4.4 84 11
2006-04-21 08:17:41 51°14.465 2°54.505 90 4.3 85 11.1
2006-04-21 08:17:48 51°14.465 2°54.518 91.7 4.2 87 11.6
2006-04-21 08:17:53 51°14.465 2°54.527 93 4.1 87 11.2
2006-04-21 08:17:58 51°14.465 2°54.536 94.5 4 89 11.7
2006-04-21 08:18:03 51°14.465 2°54.544 95.9 3.9 89 11.8
2006-04-21 08:18:08 51°14.465 2°54.553 96.7 3.8 92 11.3
2006-04-21 08:18:13 51°14.465 2°54.561 98 3.8 90 11.3
2006-04-21 08:18:17 51°14.464 2°54.567 98.6 3.7 96 11.3
2006-04-21 08:18:23 51°14.464 2°54.577 99.4 3.7 91 11.6
2006-04-21 08:18:28 51°14.463 2°54.586 100 3.8 96 11.2
2006-04-21 08:18:33 51°14.463 2°54.595 100.2 4 93 11.3
2006-04-21 08:18:37 51°14.463 2°54.602 100.2 4.1 97 11.1
2006-04-21 08:18:43 51°14.462 2°54.614 100.2 4.3 93 11.4
2006-04-21 08:18:48 51°14.461 2°54.623 99.8 4.4 97 11.4
2006-04-21 08:18:53 51°14.461 2°54.633 100.2 4.5 92 11.5
2006-04-21 08:18:57 51°14.46 2°54.641 100.5 4.5 99 11.5
2006-04-21 08:19:02 51°14.46 2°54.652 101.2 4.6 94 10.9
2006-04-21 08:19:08 51°14.458 2°54.664 102.3 4.7 101 11.3
2006-04-21 08:19:13 51°14.457 2°54.675 103 4.8 98 11.5
2006-04-21 08:19:17 51°14.456 2°54.683 104.1 4.9 103 11.5
2006-04-21 08:19:22 51°14.454 2°54.693 105.2 4.9 100 11.4
2006-04-21 08:19:28 51°14.452 2°54.706 106.5 4.9 105 11.3
2006-04-21 08:19:33 51°14.451 2°54.716 107.6 4.8 103 11.2
2006-04-21 08:19:37 51°14.449 2°54.725 109.1 4.8 107 10.8
2006-04-21 08:19:43 51°14.447 2°54.737 109.7 4.8 105 11.1
2006-04-21 08:19:47 51°14.445 2°54.745 110.2 4.8 108 10.9
2006-04-21 08:19:53 51°14.443 2°54.757 110.7 4.7 107 11.1
2006-04-21 08:19:57 51°14.441 2°54.765 111.5 4.7 110 11.2
2006-04-21 08:20:01 51°14.439 2°54.773 112.2 4.7 109 11.2
2006-04-21 08:20:07 51°14.437 2°54.784 113.1 4.7 111 11.1
2006-04-21 08:20:12 51°14.434 2°54.794 113.7 4.8 110 11
2006-04-21 08:20:18 51°14.431 2°54.807 113.7 5 111 11.3
2006-04-21 08:20:23 51°14.429 2°54.818 113.7 5.1 110 11.1
2006-04-21 08:20:28 51°14.426 2°54.828 113.8 5.3 112 10.9
2006-04-21 08:20:33 51°14.423 2°54.84 114.4 5.4 111 10.8
2006-04-21 08:20:37 51°14.421 2°54.849 115.2 5.5 114 10.8
2006-04-21 08:20:43 51°14.417 2°54.862 115.4 5.6 112 11.1
2006-04-21 08:20:47 51°14.415 2°54.871 115.4 5.6 113 11.1
2006-04-21 08:20:53 51°14.411 2°54.885 115.2 5.7 112 10.8
2006-04-21 08:20:57 51°14.408 2°54.894 115.4 5.7 113 10.9
2006-04-21 08:21:03 51°14.404 2°54.908 116 5.6 113 11
2006-04-21 08:21:07 51°14.402 2°54.917 116.7 5.7 115 11
2006-04-21 08:21:12 51°14.399 2°54.928 117.1 5.6 115 10.9
2006-04-21 08:21:18 51°14.394 2°54.942 117.8 5.7 116 10.9
2006-04-21 08:21:22 51°14.392 2°54.951 118 5.6 115 10.8
2006-04-21 08:21:28 51°14.388 2°54.965 117.9 5.7 116 10.7
2006-04-21 08:21:33 51°14.384 2°54.976 117.5 5.6 115 10.7
2006-04-21 08:21:38 51°14.381 2°54.987 117.4 5.6 116 10.7
2006-04-21 08:21:43 51°14.378 2°54.998 117.7 5.5 116 10.7
2006-04-21 08:21:47 51°14.375 2°55.006 118.3 5.4 117 10.7
2006-04-21 08:21:52 51°14.371 2°55.017 119.2 5.5 117 10.7
2006-04-21 08:21:57 51°14.368 2°55.028 119.6 5.4 117 10.7
2006-04-21 08:22:01 51°14.365 2°55.036 120 5.4 118 10.8
2006-04-21 08:22:07 51°14.361 2°55.048 119.9 5.3 117 10.8
2006-04-21 08:22:13 51°14.357 2°55.06 120.4 5.1 118 11
2006-04-21 08:22:17 51°14.354 2°55.068 121.2 5 118 11.2
2006-04-21 08:22:23 51°14.35 2°55.079 121.8 4.9 119 11
2006-04-21 08:22:27 51°14.348 2°55.086 122 4.6 119 10.9
2006-04-21 08:22:32 51°14.345 2°55.095 122.2 4.5 119 10.8
2006-04-21 08:22:38 51°14.341 2°55.105 122.5 4.5 119 10.9
2006-04-21 08:22:43 51°14.338 2°55.113 122.2 4.2 120 10.8
2006-04-21 08:22:48 51°14.335 2°55.122 122.5 4.2 118 -999
2006-04-21 08:22:53 51°14.332 2°55.129 122.6 4.1 121 10.8
2006-04-21 08:22:57 51°14.33 2°55.135 122.9 3.9 119 10.8
2006-04-21 08:23:03 51°14.327 2°55.144 123.3 3.9 121 10.8
2006-04-21 08:23:07 51°14.325 2°55.149 123.6 3.7 120 10.8
2006-04-21 08:23:13 51°14.322 2°55.158 124.1 3.6 123 10.8
2006-04-21 08:23:17 51°14.32 2°55.163 124.8 3.5 121 -999
2006-04-21 08:23:23 51°14.317 2°55.17 125.6 3.4 124 11.3
2006-04-21 08:23:28 51°14.314 2°55.177 126.3 3.4 122 10.7
2006-04-21 08:23:33 51°14.312 2°55.182 127 3.3 126 10.7
2006-04-21 08:23:37 51°14.31 2°55.187 127.5 3.2 123 10.7
2006-04-21 08:23:42 51°14.307 2°55.193 128 3.1 126 10.7
2006-04-21 08:23:47 51°14.305 2°55.198 128.4 3 122 10.8
2006-04-21 08:23:53 51°14.302 2°55.205 128.8 3 126 10.8
2006-04-21 08:23:58 51°14.3 2°55.21 128.9 2.9 124 10.7
2006-04-21 08:24:03 51°14.298 2°55.215 129.2 2.8 127 10.8
2006-04-21 08:24:07 51°14.296 2°55.219 129.5 2.8 124 10.7
2006-04-21 08:24:13 51°14.294 2°55.225 129.8 2.7 127 10.8
2006-04-21 08:24:17 51°14.292 2°55.229 130 2.7 124 10.7
2006-04-21 08:24:23 51°14.289 2°55.234 130.2 2.7 127 10.8
2006-04-21 08:24:27 51°14.287 2°55.238 130.6 2.6 125 10.8
2006-04-21 08:24:33 51°14.285 2°55.244 130.8 2.6 128 10.7
2006-04-21 08:24:37 51°14.283 2°55.247 131.2 2.6 126 10.7
2006-04-21 08:24:43 51°14.28 2°55.253 131.5 2.6 129 -999
2006-04-21 08:24:47 51°14.279 2°55.257 131.9 2.6 128 10.8
2006-04-21 08:24:53 51°14.276 2°55.262 132.6 2.6 130 10.7
2006-04-21 08:24:57 51°14.274 2°55.265 133.5 2.6 130 10.7
2006-04-21 08:25:03 51°14.271 2°55.271 134.3 2.7 132 10.7
2006-04-21 08:25:08 51°14.268 2°55.275 135.1 2.8 132 10.7
2006-04-21 08:25:13 51°14.265 2°55.28 136 3 133 10.7
2006-04-21 08:25:17 51°14.263 2°55.284 136.8 3.1 135 10.7